Terminal Aerodrome Forecast
Issued by NWS Topeka, KS

Home | Current Version | Previous Version | Text Only | Print | Product List | Glossary Off
Versions: 1 2 3 4 5 6 7 8 9 10 11 12 13 14 15 16 17 18 19 20

000
FTUS43 KTOP 140520
TAFTOP
TAF
KTOP 140520Z 1406/1506 32005KT P6SM SCT050
     FM140900 VRB05KT P6SM VCSH BKN060
     FM141000 15004KT P6SM -SHRA VCTS OVC050CB
     FM141700 19012G19KT P6SM VCSH BKN090
     FM142300 28014G25KT P6SM VCTS OVC040CB=

USA.gov is the U.S. government's official web portal to all federal, state and local government web resources and services.